Aviation Digital Data Service (ADDS)

Output produced by METARs form (2038 UTC 20 August 2019)
found at http://www.aviationweather.gov/metar/data/
 
Forecast for: HESN (ASWAN (CIV/MIL) , EG)
Text: TAF HESN 201700Z 2018/2124 02014KT CAVOK
Forecast period: 1800 UTC 20 August 2019 to 0000 UTC 22 August 2019
Forecast type: FROM: standard forecast or significant change
Winds: from the NNE (20 degrees) at 16 MPH (14 knots; 7.2 m/s)
Visibility: 6 or more miles 10+ km)
Ceiling: unknown
Clouds: missing
Weather: NSW  (no significant weather)